Terminal Aerodrome Forecast
Issued by NWS

Home | Current Version | Previous Version | Text Only | Print | Product List | Glossary On
Versions: 1 2 3 4 5 6 7 8 9 10 11 12 13 14 15 16 17 18 19 20 21 22 23
941
FTAK31 PAJN 112337
TAFAKT
TAF
PAKT 112337Z 1200/1224 VRB04KT P6SM FEW040 SCT080
     FM120300 13007KT P6SM SCT025 OVC050
      TEMPO 1204/1208 -RA BKN025
     FM120900 13012G20KT P6SM -RA SCT015 OVC025 WS020/14035KT
     FM121200 13010G20KT 4SM RA BR BKN015 OVC025 WS020/14035KT
     FM121700 18010KT P6SM -SHRA SCT015 OVC025
     FM122100 16006KT P6SM VCSH SCT025 OVC050
      AMD LTD TO CLD VIS AND WIND 1112/1115=

USA.gov is the U.S. government's official web portal to all federal, state and local government web resources and services.